Time;durP1;ratioP1;P1;durP2;ratioP2;P2;SDS_P1;SDS_P2;PMS_P1;PMS_P2;Temp;Humidity;BMP_temperature;BMP_pressure;BME280_temperature;BME280_humidity;BME280_pressure;Samples;Min_cycle;Max_cycle;Signal;HPM_P1;HPM_P2
2023/05/15 00:01:15;;;;;;;11.55;8.75;;;16.80;99.90;;;;;;4170250;28;20021;-61
2023/05/15 00:03:16;;;;;;;9.73;7.88;;;16.80;99.90;;;;;;4174344;28;20469;-60
2023/05/15 00:05:17;;;;;;;10.15;8.00;;;16.70;99.90;;;;;;4179002;28;20485;-61
2023/05/15 00:07:17;;;;;;;10.93;7.43;;;16.70;99.90;;;;;;4179214;28;20037;-60
2023/05/15 00:09:18;;;;;;;9.75;8.40;;;16.70;99.90;;;;;;4175035;28;20036;-59
2023/05/15 00:11:20;;;;;;;16.15;9.10;;;16.70;99.90;;;;;;4173515;28;20443;-61
2023/05/15 00:13:20;;;;;;;12.40;8.90;;;16.70;99.90;;;;;;4178992;28;20029;-62
2023/05/15 00:15:21;;;;;;;11.52;8.50;;;16.70;99.90;;;;;;4175319;28;20118;-61
2023/05/15 00:17:21;;;;;;;11.73;9.02;;;16.70;99.90;;;;;;4173691;28;20034;-61
2023/05/15 00:19:22;;;;;;;13.52;8.25;;;16.70;99.90;;;;;;4181029;28;20024;-61
2023/05/15 00:21:23;;;;;;;9.63;7.65;;;16.60;99.90;;;;;;4173444;28;20083;-61
2023/05/15 00:23:23;;;;;;;10.80;8.30;;;16.60;99.90;;;;;;4173975;28;20048;-61
2023/05/15 00:25:24;;;;;;;14.77;9.07;;;16.60;99.90;;;;;;4177518;28;20048;-61
2023/05/15 00:27:25;;;;;;;15.13;10.63;;;16.60;99.90;;;;;;4178788;28;20029;-61
2023/05/15 00:29:26;;;;;;;14.77;9.10;;;16.60;99.90;;;;;;4177918;28;20021;-61
2023/05/15 00:31:26;;;;;;;10.90;9.13;;;16.50;99.90;;;;;;4175672;28;20041;-61
2023/05/15 00:33:27;;;;;;;15.80;8.70;;;16.50;99.90;;;;;;4176739;28;20422;-61
2023/05/15 00:35:27;;;;;;;10.75;8.40;;;16.50;99.90;;;;;;4173992;28;20037;-61
2023/05/15 00:37:28;;;;;;;13.93;9.40;;;16.50;99.90;;;;;;4175959;28;20458;-61
2023/05/15 00:39:28;;;;;;;11.75;9.60;;;16.50;99.90;;;;;;4176787;28;20040;-63
2023/05/15 00:41:31;;;;;;;11.25;8.32;;;16.50;99.90;;;;;;4171947;28;20076;-61
2023/05/15 00:43:32;;;;;;;11.48;8.45;;;16.40;99.90;;;;;;4175020;28;20031;-61
2023/05/15 00:45:33;;;;;;;12.00;7.90;;;16.40;99.90;;;;;;4176362;28;20068;-61
2023/05/15 00:47:34;;;;;;;11.55;8.48;;;16.40;99.90;;;;;;4184997;28;20032;-61
2023/05/15 00:49:36;;;;;;;12.50;8.25;;;16.40;99.90;;;;;;4173142;28;20033;-61
2023/05/15 00:51:39;;;;;;;10.60;7.80;;;16.40;99.90;;;;;;4181516;28;20067;-61
2023/05/15 00:53:41;;;;;;;9.65;7.63;;;16.40;99.90;;;;;;4173247;28;20040;-61
2023/05/15 00:55:44;;;;;;;13.35;9.40;;;16.40;99.90;;;;;;4176200;28;20037;-61
2023/05/15 00:57:45;;;;;;;;;;;16.40;99.90;;;;;;4179107;28;20037;-61
2023/05/15 00:59:46;;;;;;;9.93;7.13;;;16.40;99.90;;;;;;4179979;28;19950;-61
2023/05/15 01:01:47;;;;;;;8.63;7.03;;;16.40;99.90;;;;;;4177623;28;20048;-61
2023/05/15 01:03:48;;;;;;;10.45;7.35;;;16.40;99.90;;;;;;4171543;28;20033;-61
2023/05/15 01:05:48;;;;;;;11.77;7.70;;;16.40;99.90;;;;;;4179162;28;20033;-61
2023/05/15 01:08:09;;;;;;;11.27;8.23;;;16.40;99.90;;;;;;4176534;28;20040;-61
2023/05/15 01:10:10;;;;;;;10.13;7.82;;;16.30;99.90;;;;;;4173644;28;20404;-61
2023/05/15 01:12:14;;;;;;;10.93;7.25;;;16.30;99.90;;;;;;4182189;28;20039;-60
2023/05/15 01:14:14;;;;;;;10.45;7.68;;;16.40;99.90;;;;;;4177132;28;20063;-61
2023/05/15 01:16:15;;;;;;;13.13;7.88;;;16.30;99.90;;;;;;4187335;28;20025;-61
2023/05/15 01:18:16;;;;;;;10.43;7.65;;;16.30;99.90;;;;;;4176069;28;20103;-61
2023/05/15 01:20:17;;;;;;;10.52;8.02;;;16.30;99.90;;;;;;4176409;28;20039;-61
2023/05/15 01:22:29;;;;;;;11.98;8.02;;;16.30;99.90;;;;;;4178977;28;20120;-61
2023/05/15 01:24:39;;;;;;;12.45;9.32;;;16.30;99.90;;;;;;4179766;28;20155;-63
2023/05/15 01:27:15;;;;;;;11.75;8.45;;;16.30;99.90;;;;;;4171581;28;20450;-61
2023/05/15 01:29:42;;;;;;;10.80;7.40;;;16.20;99.90;;;;;;4180743;28;20029;-61
2023/05/15 01:31:49;;;;;;;8.45;6.80;;;16.20;99.90;;;;;;4166412;28;20037;-60
2023/05/15 01:33:57;;;;;;;10.27;7.88;;;16.10;99.90;;;;;;4177803;28;20484;-61
2023/05/15 01:36:06;;;;;;;11.98;8.20;;;16.10;99.90;;;;;;4173390;28;20044;-61
2023/05/15 01:38:22;;;;;;;18.35;8.50;;;16.10;99.90;;;;;;4179324;28;20120;-61
2023/05/15 01:40:25;;;;;;;11.82;8.15;;;16.00;99.90;;;;;;4182929;28;20479;-61
2023/05/15 01:42:31;;;;;;;10.40;7.15;;;16.00;99.90;;;;;;4184295;28;20454;-61
2023/05/15 01:44:51;;;;;;;8.82;7.03;;;16.00;99.90;;;;;;4171818;28;20112;-61
2023/05/15 01:46:56;;;;;;;9.77;7.68;;;16.00;99.90;;;;;;4176070;28;20029;-61
2023/05/15 01:49:00;;;;;;;11.30;8.35;;;16.00;99.90;;;;;;4181703;28;20036;-61
2023/05/15 01:51:03;;;;;;;11.63;9.30;;;16.00;99.90;;;;;;4170936;28;20040;-63
2023/05/15 01:53:06;;;;;;;12.43;8.43;;;15.80;99.90;;;;;;4175993;28;20044;-61
2023/05/15 01:55:08;;;;;;;16.67;10.85;;;15.80;99.90;;;;;;4178974;28;20029;-61
2023/05/15 01:57:10;;;;;;;10.57;8.27;;;15.70;99.90;;;;;;4175211;28;20079;-61
2023/05/15 01:59:12;;;;;;;12.18;8.65;;;15.70;99.90;;;;;;4177620;28;20480;-61
2023/05/15 02:01:14;;;;;;;12.17;9.47;;;15.60;99.90;;;;;;4179470;28;20040;-61
2023/05/15 02:03:15;;;;;;;12.70;10.02;;;15.60;99.90;;;;;;4177607;28;20080;-61
2023/05/15 02:05:16;;;;;;;14.35;10.38;;;15.50;99.90;;;;;;4181241;28;20025;-61
2023/05/15 02:07:17;;;;;;;13.30;10.13;;;15.50;99.90;;;;;;4177241;28;20028;-61
2023/05/15 02:09:19;;;;;;;16.25;11.60;;;15.40;99.90;;;;;;4176151;28;20043;-61
2023/05/15 02:11:20;;;;;;;13.95;9.60;;;15.30;99.90;;;;;;4173533;28;20581;-61
2023/05/15 02:13:22;;;;;;;15.82;10.55;;;15.30;99.90;;;;;;4185098;28;20137;-61
2023/05/15 02:15:23;;;;;;;14.73;10.20;;;15.30;99.90;;;;;;4183737;28;20086;-64
2023/05/15 02:17:27;;;;;;;11.00;9.43;;;15.20;99.90;;;;;;4184292;28;20043;-61
2023/05/15 02:19:28;;;;;;;11.73;8.25;;;15.20;99.90;;;;;;4184041;28;20029;-61
2023/05/15 02:21:28;;;;;;;15.05;8.75;;;15.20;99.90;;;;;;4176041;28;20095;-61
2023/05/15 02:23:29;;;;;;;12.57;9.57;;;15.20;99.90;;;;;;4175981;28;20108;-61
2023/05/15 02:26:02;;;;;;;12.10;9.20;;;15.20;99.90;;;;;;4173771;28;20026;-61
2023/05/15 02:28:06;;;;;;;12.00;8.37;;;15.20;99.90;;;;;;4165989;28;20480;-61
2023/05/15 02:30:25;;;;;;;12.32;9.20;;;15.20;99.90;;;;;;4174584;28;20369;-62
2023/05/15 02:33:03;;;;;;;10.88;8.40;;;15.30;99.90;;;;;;4180295;28;20033;-61
2023/05/15 02:35:20;;;;;;;11.00;8.65;;;15.30;99.90;;;;;;4173646;28;20086;-61
2023/05/15 02:37:29;;;;;;;12.23;8.60;;;15.30;99.90;;;;;;4179450;28;20110;-61
2023/05/15 02:39:32;;;;;;;13.80;8.60;;;15.30;99.90;;;;;;4184107;28;20032;-61
2023/05/15 02:41:34;;;;;;;14.35;9.82;;;15.30;99.90;;;;;;4173576;28;20037;-61
2023/05/15 02:43:36;;;;;;;23.35;9.88;;;15.30;99.90;;;;;;4181191;28;20037;-61
2023/05/15 02:45:38;;;;;;;11.05;8.60;;;15.30;99.90;;;;;;4180205;28;20098;-60
2023/05/15 02:47:39;;;;;;;12.07;9.52;;;15.40;99.90;;;;;;4184314;28;20112;-61
2023/05/15 02:49:40;;;;;;;10.80;9.00;;;15.40;99.90;;;;;;4181927;28;20036;-61
2023/05/15 02:51:41;;;;;;;15.68;9.43;;;15.30;99.90;;;;;;4175898;28;20032;-61
2023/05/15 02:53:42;;;;;;;10.95;9.38;;;15.30;99.90;;;;;;4176772;28;20066;-61
2023/05/15 02:55:42;;;;;;;12.25;9.82;;;15.40;99.90;;;;;;4170059;28;20091;-61
2023/05/15 02:57:43;;;;;;;16.65;11.20;;;15.30;99.90;;;;;;4181136;28;20383;-61
2023/05/15 02:59:44;;;;;;;15.57;10.77;;;15.20;99.90;;;;;;4175850;28;20118;-61
2023/05/15 03:01:48;;;;;;;13.90;11.05;;;15.20;99.90;;;;;;4171943;28;20472;-60
2023/05/15 03:03:49;;;;;;;15.68;11.00;;;15.20;99.90;;;;;;4172635;28;20488;-61
2023/05/15 03:05:49;;;;;;;13.15;10.88;;;15.10;99.90;;;;;;4174042;28;20037;-61
2023/05/15 03:07:50;;;;;;;13.23;10.07;;;15.00;99.90;;;;;;4177383;28;20052;-61
2023/05/15 03:09:51;;;;;;;14.88;10.98;;;15.00;99.90;;;;;;4173420;28;20033;-61
2023/05/15 03:11:51;;;;;;;15.82;12.00;;;15.00;99.90;;;;;;4175444;28;20116;-61
2023/05/15 03:13:52;;;;;;;15.23;11.27;;;15.00;99.90;;;;;;4180367;28;20037;-61
2023/05/15 03:15:52;;;;;;;10.63;9.20;;;14.90;99.90;;;;;;4185246;28;20063;-61
2023/05/15 03:17:53;;;;;;;14.63;10.13;;;14.90;99.90;;;;;;4177164;28;20445;-61
2023/05/15 03:19:55;;;;;;;14.18;9.93;;;14.90;99.90;;;;;;4185466;28;20112;-63
2023/05/15 03:21:55;;;;;;;15.17;11.30;;;14.90;99.90;;;;;;4174087;28;20403;-61
2023/05/15 03:23:56;;;;;;;14.50;10.27;;;15.00;99.90;;;;;;4179169;28;20056;-61
2023/05/15 03:25:57;;;;;;;14.07;11.05;;;14.90;99.90;;;;;;4178856;28;20069;-61
2023/05/15 03:27:58;;;;;;;11.50;9.80;;;14.90;99.90;;;;;;4177942;28;20082;-61
2023/05/15 03:29:59;;;;;;;14.57;9.75;;;15.00;99.90;;;;;;4177057;28;20464;-61
2023/05/15 03:31:59;;;;;;;11.70;9.80;;;15.00;99.90;;;;;;4177607;28;20087;-61
2023/05/15 03:34:00;;;;;;;13.25;9.75;;;15.00;99.90;;;;;;4185260;28;20029;-61
2023/05/15 03:36:00;;;;;;;10.65;9.13;;;15.00;99.90;;;;;;4181315;28;20064;-61
2023/05/15 03:38:01;;;;;;;14.93;10.85;;;15.00;99.90;;;;;;4181814;28;20384;-61
2023/05/15 03:40:03;;;;;;;15.73;9.73;;;15.00;99.90;;;;;;4183958;28;20044;-61
2023/05/15 03:42:04;;;;;;;12.13;9.80;;;15.10;99.90;;;;;;4171443;28;20492;-61
2023/05/15 03:44:04;;;;;;;12.35;9.63;;;15.00;99.90;;;;;;4180822;28;20040;-65
2023/05/15 03:46:05;;;;;;;11.68;9.07;;;15.10;99.90;;;;;;4180470;28;20522;-62
2023/05/15 03:48:05;;;;;;;14.20;10.00;;;15.10;99.90;;;;;;4184783;28;20388;-62
2023/05/15 03:50:06;;;;;;;16.15;10.45;;;15.10;99.90;;;;;;4184232;28;20458;-63
2023/05/15 03:52:07;;;;;;;13.35;10.20;;;15.10;99.90;;;;;;4186284;28;20044;-62
2023/05/15 03:54:07;;;;;;;14.30;10.90;;;15.00;99.90;;;;;;4178625;28;20045;-62
2023/05/15 03:56:08;;;;;;;12.80;9.88;;;15.00;99.90;;;;;;4175541;28;20025;-62
2023/05/15 03:58:09;;;;;;;13.40;10.90;;;15.00;99.90;;;;;;4184240;28;20116;-62
2023/05/15 04:00:10;;;;;;;14.35;11.50;;;15.00;99.90;;;;;;4169850;28;20082;-63
2023/05/15 04:02:11;;;;;;;14.60;10.88;;;15.00;99.90;;;;;;4174316;28;20043;-62
2023/05/15 04:04:12;;;;;;;13.05;9.55;;;15.00;99.90;;;;;;4180762;28;20040;-62
2023/05/15 04:06:12;;;;;;;15.00;10.07;;;14.90;99.90;;;;;;4179567;28;20392;-61
2023/05/15 04:08:13;;;;;;;12.32;10.27;;;14.90;99.90;;;;;;4178288;28;20048;-61
2023/05/15 04:10:13;;;;;;;15.45;10.70;;;14.90;99.90;;;;;;4178598;28;20036;-62
2023/05/15 04:12:14;;;;;;;14.43;10.45;;;15.00;99.90;;;;;;4174933;28;20069;-62
2023/05/15 04:14:14;;;;;;;14.48;9.98;;;15.00;99.90;;;;;;4172676;28;20037;-62
2023/05/15 04:16:15;;;;;;;13.77;10.23;;;15.00;99.90;;;;;;4175148;28;20065;-62
2023/05/15 04:18:15;;;;;;;11.80;9.02;;;15.00;99.90;;;;;;4180420;28;20390;-62
2023/05/15 04:20:20;;;;;;;13.20;10.18;;;15.00;99.90;;;;;;4172758;28;20052;-62
2023/05/15 04:22:20;;;;;;;15.15;10.35;;;15.00;99.90;;;;;;4174940;28;20036;-61
2023/05/15 04:24:21;;;;;;;12.70;9.68;;;15.00;99.90;;;;;;4175304;28;20445;-62
2023/05/15 04:26:21;;;;;;;13.52;9.95;;;15.00;99.90;;;;;;4167939;28;20017;-62
2023/05/15 04:28:22;;;;;;;16.33;11.35;;;15.00;99.90;;;;;;4171467;28;20033;-62
2023/05/15 04:30:23;;;;;;;14.27;10.88;;;15.00;99.90;;;;;;4174614;28;20048;-62
2023/05/15 04:32:23;;;;;;;12.48;9.70;;;15.10;99.90;;;;;;4179066;28;20052;-61
2023/05/15 04:34:24;;;;;;;16.27;11.70;;;15.00;99.90;;;;;;4173150;28;20028;-61
2023/05/15 04:36:24;;;;;;;14.20;11.13;;;15.00;99.90;;;;;;4175004;28;20112;-65
2023/05/15 04:38:25;;;;;;;12.25;10.18;;;15.00;99.90;;;;;;4175904;28;20040;-62
2023/05/15 04:40:26;;;;;;;13.45;10.98;;;15.00;99.90;;;;;;4179620;28;20037;-61
2023/05/15 04:42:28;;;;;;;14.98;10.70;;;15.00;99.90;;;;;;4174964;28;20399;-62
2023/05/15 04:44:28;;;;;;;17.33;12.13;;;15.00;99.90;;;;;;4181429;28;20369;-62
2023/05/15 04:46:29;;;;;;;15.10;10.45;;;15.00;99.90;;;;;;4176478;28;20044;-61
2023/05/15 04:48:29;;;;;;;16.70;11.65;;;14.90;99.90;;;;;;4173231;28;20383;-62
2023/05/15 04:50:30;;;;;;;15.15;11.90;;;14.90;99.90;;;;;;4172496;28;20451;-62
2023/05/15 04:52:31;;;;;;;14.40;11.50;;;14.90;99.90;;;;;;4174382;28;20036;-61
2023/05/15 04:54:31;;;;;;;16.50;12.77;;;14.80;99.90;;;;;;4178979;28;20048;-61
2023/05/15 04:56:32;;;;;;;22.20;14.02;;;14.80;99.90;;;;;;4179695;28;20062;-61
2023/05/15 04:58:32;;;;;;;17.13;12.45;;;14.70;99.90;;;;;;4176278;28;20024;-62
2023/05/15 05:00:33;;;;;;;18.35;12.82;;;14.70;99.90;;;;;;4174604;28;20390;-62
2023/05/15 05:02:34;;;;;;;19.60;14.23;;;14.60;99.90;;;;;;4171475;28;20358;-62
2023/05/15 05:04:35;;;;;;;16.52;12.77;;;14.60;99.90;;;;;;4176449;28;20025;-61
2023/05/15 05:06:36;;;;;;;16.13;12.77;;;14.60;99.90;;;;;;4172560;28;20566;-61
2023/05/15 05:08:36;;;;;;;19.17;13.40;;;14.60;99.90;;;;;;4172166;28;20037;-61
2023/05/15 05:10:37;;;;;;;17.95;12.50;;;14.60;99.90;;;;;;4177025;28;20035;-62
2023/05/15 05:12:37;;;;;;;14.82;11.88;;;14.60;99.90;;;;;;4172683;28;20120;-62
2023/05/15 05:14:40;;;;;;;19.20;15.10;;;14.60;99.90;;;;;;4174665;28;20094;-62
2023/05/15 05:16:44;;;;;;;25.15;17.25;;;14.70;99.90;;;;;;4176562;28;20106;-61
2023/05/15 05:18:44;;;;;;;25.02;17.30;;;14.50;99.90;;;;;;4180561;28;20040;-62
2023/05/15 05:20:45;;;;;;;21.55;17.30;;;14.40;99.90;;;;;;4177560;28;20118;-62
2023/05/15 05:22:45;;;;;;;22.60;16.15;;;14.30;99.90;;;;;;4168122;28;20047;-62
2023/05/15 05:24:46;;;;;;;20.38;14.68;;;14.30;99.90;;;;;;4176389;28;20065;-61
2023/05/15 05:26:47;;;;;;;18.00;14.15;;;14.30;99.90;;;;;;4171962;28;20729;-61
2023/05/15 05:28:48;;;;;;;26.60;17.20;;;14.30;99.90;;;;;;4172579;28;20431;-62
2023/05/15 05:30:48;;;;;;;17.52;12.75;;;14.30;99.90;;;;;;4175355;28;20078;-62
2023/05/15 05:32:49;;;;;;;23.00;15.95;;;14.40;99.90;;;;;;4180376;28;20033;-62
2023/05/15 05:34:49;;;;;;;29.45;19.25;;;14.40;99.90;;;;;;4176113;28;20037;-60
2023/05/15 05:36:50;;;;;;;24.92;16.77;;;14.30;99.90;;;;;;4173175;28;20033;-61
2023/05/15 05:38:50;;;;;;;26.73;18.77;;;14.30;99.90;;;;;;4178921;28;20037;-61
2023/05/15 05:40:51;;;;;;;32.22;20.15;;;14.30;99.90;;;;;;4171680;28;20037;-61
2023/05/15 05:42:52;;;;;;;29.55;18.13;;;14.10;99.90;;;;;;4172808;28;20473;-61
2023/05/15 05:44:52;;;;;;;19.40;15.02;;;14.10;99.90;;;;;;4179322;28;20120;-61
2023/05/15 05:46:53;;;;;;;26.67;16.50;;;14.10;99.90;;;;;;4176066;28;20492;-62
2023/05/15 05:48:53;;;;;;;21.17;15.20;;;14.20;99.90;;;;;;4173927;28;20037;-61
2023/05/15 05:50:54;;;;;;;22.95;15.63;;;14.30;99.90;;;;;;4176926;28;20037;-61
2023/05/15 05:52:54;;;;;;;19.73;16.02;;;14.30;99.90;;;;;;4180967;28;20499;-61
2023/05/15 05:54:55;;;;;;;26.98;17.98;;;14.40;99.90;;;;;;4174792;28;20033;-62
2023/05/15 05:56:56;;;;;;;20.65;15.35;;;14.40;99.90;;;;;;4175480;28;20048;-68
2023/05/15 05:58:56;;;;;;;20.95;14.52;;;14.40;99.90;;;;;;4174082;28;20036;-65
2023/05/15 06:00:57;;;;;;;18.27;14.13;;;14.50;99.90;;;;;;4177522;28;20041;-65
2023/05/15 06:02:59;;;;;;;20.40;15.00;;;14.50;99.90;;;;;;4184614;28;20385;-64
2023/05/15 06:05:00;;;;;;;18.70;14.47;;;14.60;99.90;;;;;;4184056;28;20033;-65
2023/05/15 06:07:00;;;;;;;18.08;13.90;;;14.60;99.90;;;;;;4176679;28;20086;-64
2023/05/15 06:09:02;;;;;;;22.92;16.27;;;14.70;99.90;;;;;;4170715;28;20514;-64
2023/05/15 06:11:04;;;;;;;19.38;14.60;;;14.70;99.90;;;;;;4174681;28;20029;-64
2023/05/15 06:13:05;;;;;;;19.17;14.73;;;14.70;99.90;;;;;;4176211;28;20121;-64
2023/05/15 06:15:06;;;;;;;27.00;17.27;;;14.80;99.90;;;;;;4194794;28;20094;-65
2023/05/15 06:17:07;;;;;;;23.73;15.90;;;14.90;99.90;;;;;;4172597;28;20033;-64
2023/05/15 06:19:07;;;;;;;22.80;16.75;;;14.90;99.90;;;;;;4173260;28;20518;-64
2023/05/15 06:21:08;;;;;;;25.98;17.13;;;15.00;99.90;;;;;;4176333;28;20511;-64
2023/05/15 06:23:09;;;;;;;21.05;15.50;;;15.10;99.90;;;;;;4177192;28;20499;-64
2023/05/15 06:25:13;;;;;;;21.88;15.68;;;15.10;99.90;;;;;;4180261;28;20175;-65
2023/05/15 06:27:14;;;;;;;22.35;15.90;;;15.20;99.90;;;;;;4180309;28;20506;-65
2023/05/15 06:29:14;;;;;;;20.15;15.30;;;15.30;99.90;;;;;;4182335;28;20068;-65
2023/05/15 06:31:16;;;;;;;19.92;14.20;;;15.20;99.90;;;;;;4173657;28;20040;-64
2023/05/15 06:33:16;;;;;;;27.00;18.40;;;15.20;99.90;;;;;;4177045;28;20095;-65
2023/05/15 06:35:17;;;;;;;21.67;15.88;;;15.20;99.90;;;;;;4168767;28;20053;-65
2023/05/15 06:37:18;;;;;;;23.60;15.63;;;15.20;99.90;;;;;;4174359;28;20071;-65
2023/05/15 06:39:18;;;;;;;19.60;14.98;;;15.30;99.90;;;;;;4180854;28;20135;-64
2023/05/15 06:41:20;;;;;;;25.40;16.55;;;15.30;99.90;;;;;;4180721;28;20036;-64
2023/05/15 06:43:21;;;;;;;21.48;15.57;;;15.30;99.90;;;;;;4170662;28;20032;-64
2023/05/15 06:45:21;;;;;;;27.55;17.48;;;15.40;99.90;;;;;;4178093;28;20037;-64
2023/05/15 06:47:22;;;;;;;20.65;14.38;;;15.30;99.90;;;;;;4173538;28;20053;-65
2023/05/15 06:49:24;;;;;;;19.55;14.40;;;15.30;99.90;;;;;;4178639;28;20681;-65
2023/05/15 06:51:24;;;;;;;22.45;16.60;;;15.30;99.90;;;;;;4181090;28;20033;-64
2023/05/15 06:53:25;;;;;;;19.73;15.40;;;15.40;99.90;;;;;;4180274;28;20090;-64
2023/05/15 06:55:25;;;;;;;19.10;14.52;;;15.50;99.90;;;;;;4176701;28;20040;-65
2023/05/15 06:57:26;;;;;;;19.48;13.45;;;15.60;99.90;;;;;;4172723;28;20053;-65
2023/05/15 06:59:27;;;;;;;21.98;15.00;;;15.70;99.90;;;;;;4178003;28;20044;-67
2023/05/15 07:01:28;;;;;;;17.60;13.13;;;15.80;99.90;;;;;;4174236;28;20116;-65
2023/05/15 07:03:29;;;;;;;21.95;15.68;;;15.80;99.90;;;;;;4170825;28;20763;-65
2023/05/15 07:05:30;;;;;;;23.55;14.60;;;15.60;99.90;;;;;;4175851;28;20049;-65
2023/05/15 07:07:30;;;;;;;18.85;14.02;;;15.60;99.90;;;;;;4173755;28;21132;-65
2023/05/15 07:09:31;;;;;;;16.90;13.40;;;15.70;99.90;;;;;;4170584;28;20037;-65
2023/05/15 07:11:36;;;;;;;18.83;13.88;;;15.80;99.90;;;;;;4171996;28;20033;-64
2023/05/15 07:13:36;;;;;;;18.77;13.43;;;15.90;99.90;;;;;;4177839;28;20045;-65
2023/05/15 07:15:37;;;;;;;18.67;14.32;;;16.00;99.90;;;;;;4175336;28;20404;-65
2023/05/15 07:17:37;;;;;;;20.70;13.43;;;16.10;99.90;;;;;;4178350;28;20112;-65
2023/05/15 07:19:38;;;;;;;17.98;13.40;;;16.20;99.90;;;;;;4172539;28;20153;-65
2023/05/15 07:21:39;;;;;;;22.00;15.50;;;16.30;99.90;;;;;;4175368;28;20035;-64
2023/05/15 07:23:39;;;;;;;22.25;16.60;;;16.20;99.90;;;;;;4178172;28;20045;-64
2023/05/15 07:25:40;;;;;;;21.00;14.68;;;16.20;99.90;;;;;;4171336;28;20195;-65
2023/05/15 07:27:40;;;;;;;23.58;16.05;;;16.10;99.90;;;;;;4167040;28;20033;-64
2023/05/15 07:29:41;;;;;;;23.65;15.60;;;16.10;99.90;;;;;;4177396;28;20029;-65
2023/05/15 07:31:43;;;;;;;20.98;14.50;;;16.10;99.90;;;;;;4165980;28;20044;-64
2023/05/15 07:33:44;;;;;;;20.77;14.85;;;16.20;99.90;;;;;;4169555;28;20040;-65
2023/05/15 07:35:45;;;;;;;23.65;15.27;;;16.30;99.90;;;;;;4180060;28;20057;-65
2023/05/15 07:37:46;;;;;;;25.35;17.52;;;16.40;99.90;;;;;;4173810;28;20129;-65
2023/05/15 07:39:47;;;;;;;20.60;14.95;;;16.50;99.90;;;;;;4169673;28;20040;-65
2023/05/15 07:41:47;;;;;;;19.35;14.70;;;16.60;99.90;;;;;;4172407;28;20049;-65
2023/05/15 07:43:48;;;;;;;16.60;13.07;;;16.80;99.90;;;;;;4176815;28;20041;-65
2023/05/15 07:45:49;;;;;;;20.67;14.00;;;17.00;99.90;;;;;;4165553;28;20040;-65
2023/05/15 07:47:49;;;;;;;18.58;13.43;;;17.10;99.90;;;;;;4173260;28;20495;-65
2023/05/15 07:49:50;;;;;;;22.58;15.60;;;17.20;99.90;;;;;;4176399;28;20040;-65
2023/05/15 07:51:50;;;;;;;17.77;13.48;;;17.10;99.90;;;;;;4174990;28;20735;-65
2023/05/15 07:53:51;;;;;;;18.23;13.05;;;17.30;99.90;;;;;;4172625;28;20404;-65
2023/05/15 07:55:52;;;;;;;19.88;14.35;;;17.40;99.90;;;;;;4175475;28;20479;-65
2023/05/15 07:57:52;;;;;;;18.10;13.00;;;17.40;99.90;;;;;;4171474;28;20037;-65
2023/05/15 07:59:53;;;;;;;20.80;14.88;;;17.40;99.90;;;;;;4174190;28;20043;-65
2023/05/15 08:01:54;;;;;;;18.50;13.88;;;17.40;99.90;;;;;;4175045;28;20036;-65
2023/05/15 08:03:54;;;;;;;17.65;12.90;;;17.30;99.90;;;;;;4171700;28;20037;-64
2023/05/15 08:05:55;;;;;;;21.77;14.38;;;17.40;99.90;;;;;;4173051;28;20033;-65
2023/05/15 08:07:56;;;;;;;20.52;13.43;;;17.40;99.90;;;;;;4176338;28;20036;-64
2023/05/15 08:09:56;;;;;;;21.10;13.90;;;17.50;99.90;;;;;;4176174;28;20062;-65
2023/05/15 08:12:19;;;;;;;16.20;11.68;;;17.70;99.90;;;;;;4175474;28;20098;-65
2023/05/15 08:14:20;;;;;;;19.17;13.00;;;17.80;99.90;;;;;;4177352;28;20064;-65
2023/05/15 08:16:20;;;;;;;19.90;13.65;;;17.80;99.90;;;;;;4176522;28;20376;-65
2023/05/15 08:18:21;;;;;;;19.08;12.93;;;17.80;99.90;;;;;;4187096;28;20056;-65
2023/05/15 08:20:22;;;;;;;14.85;11.52;;;17.90;99.90;;;;;;4173599;28;20036;-65
2023/05/15 08:22:22;;;;;;;18.55;13.05;;;17.90;99.90;;;;;;4172138;28;20499;-65
2023/05/15 08:24:23;;;;;;;17.02;11.60;;;18.00;99.90;;;;;;4175099;28;20037;-65
2023/05/15 08:26:23;;;;;;;12.98;9.90;;;18.20;99.90;;;;;;4168396;28;20618;-64
2023/05/15 08:28:24;;;;;;;17.17;11.38;;;18.30;99.90;;;;;;4171783;28;20047;-65
2023/05/15 08:30:25;;;;;;;19.33;13.07;;;18.40;99.90;;;;;;4168302;28;20037;-65
2023/05/15 08:32:26;;;;;;;13.45;9.73;;;18.50;99.90;;;;;;4173762;28;20119;-65
2023/05/15 08:34:27;;;;;;;15.75;9.98;;;18.70;99.90;;;;;;4169966;28;20500;-65
2023/05/15 08:36:28;;;;;;;13.27;10.27;;;18.70;99.90;;;;;;4173886;28;20171;-64
2023/05/15 08:38:28;;;;;;;14.18;9.98;;;18.80;99.90;;;;;;4180602;28;20084;-65
2023/05/15 08:40:30;;;;;;;12.65;10.13;;;18.90;99.90;;;;;;4172938;28;20025;-65
2023/05/15 08:42:43;;;;;;;12.43;10.02;;;19.00;99.90;;;;;;4176675;28;20033;-65
2023/05/15 08:44:44;;;;;;;14.82;9.75;;;19.20;99.90;;;;;;4173875;28;21166;-66
2023/05/15 08:46:46;;;;;;;18.35;11.90;;;19.30;99.90;;;;;;4172751;28;20040;-65
2023/05/15 08:48:48;;;;;;;10.88;9.05;;;19.40;99.90;;;;;;4176907;28;20033;-65
2023/05/15 08:50:48;;;;;;;15.65;10.73;;;19.50;99.90;;;;;;4171931;28;20041;-65
2023/05/15 08:52:50;;;;;;;11.50;9.20;;;19.60;99.90;;;;;;4170891;28;20091;-65
2023/05/15 08:54:52;;;;;;;13.80;9.20;;;19.70;99.90;;;;;;4172664;28;20041;-65
2023/05/15 08:56:53;;;;;;;15.05;10.85;;;19.80;99.90;;;;;;4172483;28;20037;-65
2023/05/15 08:58:53;;;;;;;15.23;10.82;;;19.90;99.90;;;;;;4173697;28;20522;-65
2023/05/15 09:00:55;;;;;;;14.43;11.40;;;19.80;99.90;;;;;;4172259;28;20053;-65
2023/05/15 09:02:59;;;;;;;16.50;11.67;;;19.90;99.90;;;;;;4175882;28;20068;-65
2023/05/15 09:04:59;;;;;;;17.08;12.35;;;19.90;99.90;;;;;;4174065;28;20560;-65
2023/05/15 09:07:01;;;;;;;21.70;14.93;;;20.00;99.90;;;;;;4177895;28;20040;-65
2023/05/15 09:09:04;;;;;;;17.23;10.77;;;20.00;99.90;;;;;;4188411;28;20444;-65
2023/05/15 09:11:06;;;;;;;16.20;10.40;;;20.00;99.90;;;;;;4181851;28;20037;-65
2023/05/15 09:13:08;;;;;;;13.30;10.55;;;20.10;99.90;;;;;;4178006;28;20033;-65
2023/05/15 09:15:10;;;;;;;16.17;10.57;;;20.20;99.90;;;;;;4175671;28;20064;-65
2023/05/15 09:17:11;;;;;;;14.80;10.73;;;20.20;99.90;;;;;;4188182;28;20680;-65
2023/05/15 09:19:14;;;;;;;15.68;10.05;;;20.20;99.90;;;;;;4175673;28;20095;-65
2023/05/15 09:21:25;;;;;;;14.02;10.35;;;20.30;99.90;;;;;;4177391;28;20481;-65
2023/05/15 09:23:27;;;;;;;12.00;9.50;;;20.30;99.90;;;;;;4182693;28;20073;-65
2023/05/15 09:25:34;;;;;;;11.80;8.52;;;20.30;99.90;;;;;;4180393;28;20610;-65
2023/05/15 09:27:42;;;;;;;9.43;7.13;;;20.40;99.90;;;;;;4184068;28;20043;-65
2023/05/15 09:29:44;;;;;;;15.60;10.60;;;20.50;99.90;;;;;;4178561;28;20037;-65
2023/05/15 09:31:46;;;;;;;11.88;9.05;;;20.60;99.90;;;;;;4176695;28;20134;-65
2023/05/15 09:33:57;;;;;;;12.07;9.25;;;20.60;99.90;;;;;;4172257;28;20045;-65
2023/05/15 09:35:58;;;;;;;16.90;11.98;;;20.60;99.90;;;;;;4177792;28;20025;-65
2023/05/15 09:38:00;;;;;;;15.73;10.20;;;20.60;99.90;;;;;;4179654;28;20503;-67
2023/05/15 09:40:08;;;;;;;16.17;10.47;;;20.70;99.90;;;;;;4180493;28;20503;-65
2023/05/15 09:42:11;;;;;;;9.93;8.38;;;20.70;99.90;;;;;;4175194;28;20133;-65
2023/05/15 09:44:23;;;;;;;12.68;8.45;;;20.70;99.90;;;;;;4174183;28;20033;-65
2023/05/15 09:46:23;;;;;;;13.10;9.15;;;20.90;99.90;;;;;;4176725;28;20111;-65
2023/05/15 09:48:24;;;;;;;11.65;8.43;;;20.90;99.90;;;;;;4175801;28;20036;-65
2023/05/15 09:50:37;;;;;;;11.80;7.72;;;20.90;99.90;;;;;;4174150;28;20037;-65
2023/05/15 09:52:38;;;;;;;13.57;9.30;;;21.00;99.90;;;;;;4171182;28;20035;-65
2023/05/15 09:54:39;;;;;;;10.82;7.97;;;21.00;99.90;;;;;;4171533;28;20033;-65
2023/05/15 09:56:43;;;;;;;12.00;8.32;;;21.00;99.90;;;;;;4169742;28;20037;-65
2023/05/15 09:58:54;;;;;;;11.18;7.82;;;21.00;99.90;;;;;;4176764;28;20044;-68
2023/05/15 10:00:59;;;;;;;12.32;9.13;;;21.00;99.90;;;;;;4175272;28;20025;-65
2023/05/15 10:03:02;;;;;;;10.65;7.25;;;21.10;99.90;;;;;;4182192;28;20463;-66
2023/05/15 10:05:03;;;;;;;10.63;7.15;;;21.10;99.90;;;;;;4173554;28;20029;-66
2023/05/15 10:07:07;;;;;;;10.45;7.68;;;21.20;99.90;;;;;;4173905;28;20063;-65
2023/05/15 10:09:09;;;;;;;12.80;8.25;;;21.30;99.90;;;;;;4175368;28;20033;-65
2023/05/15 10:11:10;;;;;;;10.88;7.72;;;21.40;99.90;;;;;;4169105;28;20029;-66
2023/05/15 10:13:10;;;;;;;17.25;12.52;;;21.40;99.90;;;;;;4177666;28;20033;-65
2023/05/15 10:15:12;;;;;;;15.70;11.70;;;21.40;99.90;;;;;;4170047;28;20021;-66
2023/05/15 10:17:13;;;;;;;15.10;10.93;;;21.30;99.90;;;;;;4176054;28;20672;-65
2023/05/15 10:19:14;;;;;;;13.63;9.95;;;21.30;99.90;;;;;;4179583;28;20503;-65
2023/05/15 10:21:17;;;;;;;12.30;8.77;;;21.40;99.90;;;;;;4177588;28;20115;-67
2023/05/15 10:23:21;;;;;;;12.88;9.00;;;21.40;99.90;;;;;;4171314;28;20531;-65